Isola Bianca — ICLD — position and weather

sailwx.info

Track history (hours):
 
Tides and Currents Weather Stations Pressure Air Temp Water Temp Dewpoint Dewpoint Depression Visibility Wind Speed Wind Dir Waves Ship Positions

Isola Bianca

Last reported at 2016-May-03 09:04 UTC. Time now 2016-May-03 10:35 UTC.
Position N 43°39' E 035°17'.

Length 183 m; draft 8 m.

Type: Ship. MMSI: 247245200.

Date/timePositionNaut miles runAvg speedWind from/ knotsBaromVisibWave heightAir tempDewpointWater temp
2016-May-03 09:04N 43°39' E 035°17'1112.8
2016-May-03 08:12N 43°44' E 035°31'1013.0
2016-May-03 07:28N 43°48' E 035°43'1312.9
2016-May-03 06:29N 43°54' E 035°58'1313.0
2016-May-03 05:29N 44°00' E 036°14'1413.1
2016-May-03 04:25N 44°06' E 036°32'4113.1
2016-May-03 01:19N 44°25' E 037°22'1012.9
2016-May-03 00:33N 44°30' E 037°34'1312.9
2016-May-02 23:33N 44°35' E 037°50'3 3.1
2016-May-02 22:32N 44°36' E 037°55'0 0.0
2016-May-02 21:32N 44°36' E 037°55'0 0.0
2016-May-02 20:32N 44°36' E 037°55'0 0.0
2016-May-02 19:32N 44°36' E 037°55'0 0.0
2016-May-02 18:32N 44°36' E 037°55'0 0.0
2016-May-02 17:32N 44°36' E 037°55'0 0.0
2016-May-02 16:32N 44°36' E 037°55'0 0.0
2016-May-02 15:32N 44°36' E 037°55'0 0.0
2016-May-02 14:32N 44°36' E 037°55'0 0.0
2016-May-02 13:32N 44°36' E 037°55'0 0.0
2016-May-02 12:32N 44°36' E 037°55'0 0.1
2016-May-02 11:32N 44°36' E 037°55'0 0.0
2016-May-02 10:32N 44°36' E 037°55'0 0.0
2016-May-02 09:32N 44°36' E 037°55'0 0.0
2016-May-02 08:29N 44°36' E 037°55'0 0.0
2016-May-02 07:32N 44°36' E 037°55'0 0.0
2016-May-02 06:32N 44°36' E 037°55'0 0.0
2016-May-02 05:32N 44°36' E 037°55'0 0.0
2016-May-02 04:32N 44°36' E 037°55'0 0.1
2016-May-02 03:32N 44°36' E 037°55'5 4.9
2016-May-02 02:33N 44°40' E 037°50'5 4.4
2016-May-02 01:31N 44°44' E 037°47'0 0.0
2016-May-02 00:31N 44°44' E 037°47'0 0.0
2016-May-01 23:31N 44°44' E 037°47'0 0.0
2016-May-01 22:31N 44°44' E 037°47'0 0.0
2016-May-01 21:31N 44°44' E 037°47'0 0.0
2016-May-01 20:31N 44°44' E 037°47'0 0.0
2016-May-01 19:22N 44°44' E 037°47'0 0.0
2016-May-01 18:31N 44°44' E 037°47'0 0.0
2016-May-01 17:31N 44°44' E 037°47'0 0.0
2016-May-01 16:31N 44°44' E 037°47'0 0.0
2016-May-01 15:31N 44°44' E 037°47'0 0.0
2016-May-01 14:31N 44°44' E 037°47'0 0.0
2016-May-01 13:13N 44°44' E 037°47'0 0.0
2016-May-01 12:31N 44°44' E 037°47'0 0.0
2016-May-01 11:31N 44°44' E 037°47'0 0.0
2016-May-01 10:31N 44°44' E 037°47'0 0.0
2016-May-01 09:22N 44°44' E 037°47'0 0.0
2016-May-01 08:31N 44°44' E 037°47'0 0.0
2016-May-01 07:31N 44°44' E 037°47'0 0.0
2016-May-01 06:31N 44°44' E 037°47'0 0.0
2016-May-01 05:31N 44°44' E 037°47'0 0.0
2016-May-01 04:31N 44°44' E 037°47'0 0.0
2016-May-01 03:31N 44°44' E 037°47'0 0.0
2016-May-01 02:31N 44°44' E 037°47'0 0.0
2016-May-01 01:31N 44°44' E 037°47'0 0.0
2016-May-01 00:31N 44°44' E 037°47'0 0.0
2016-Apr-30 23:31N 44°44' E 037°47'0 0.0
2016-Apr-30 22:31N 44°44' E 037°47'1 0.9
2016-Apr-30 21:33N 44°43' E 037°48'7 7.2
2016-Apr-30 20:33N 44°36' E 037°51'17 8.4
2016-Apr-30 18:32N 44°19' E 037°48'1 0.7
2016-Apr-30 17:17N 44°20' E 037°47'1 0.8
2016-Apr-30 16:33N 44°21' E 037°46'1 1.0
2016-Apr-30 15:24N 44°21' E 037°45'1 1.0
2016-Apr-30 14:33N 44°22' E 037°44'1 1.2
2016-Apr-30 13:33N 44°23' E 037°43'1 1.3
2016-Apr-30 12:27N 44°24' E 037°42'1 1.2
2016-Apr-30 11:33N 44°25' E 037°42'1 1.0
2016-Apr-30 10:33N 44°26' E 037°41'1 0.9
2016-Apr-30 09:33N 44°27' E 037°40'1 0.9
2016-Apr-30 08:33N 44°27' E 037°39'1 0.8
2016-Apr-30 07:33N 44°27' E 037°38'1 0.8
2016-Apr-30 06:33N 44°27' E 037°37'3 2.9
2016-Apr-30 05:33N 44°25' E 037°33'42914.3
2016-Apr-28 23:33N 41°01' E 028°60'7 6.5
2016-Apr-28 22:30N 40°57' E 028°53'0 0.0
2016-Apr-28 16:06N 40°57' E 028°53'0 0.0
2016-Apr-28 10:24N 40°57' E 028°53'2 2.0
2016-Apr-28 09:33N 40°55' E 028°53'4 3.5
2016-Apr-28 08:33N 40°52' E 028°55'4 3.9
2016-Apr-28 07:30N 40°51' E 028°50'242 8.5
2016-Apr-27 03:10N 37°32' E 025°52'36414.2
2016-Apr-26 01:31N 32°55' E 030°40'1414.9
2016-Apr-26 00:33N 32°44' E 030°52'1615.2
2016-Apr-25 23:31N 32°33' E 031°05'1415.0
2016-Apr-25 22:34N 32°22' E 031°16'1515.0
2016-Apr-25 21:33N 32°11' E 031°27'1515.1
2016-Apr-25 20:34N 31°60' E 031°39'1514.9
2016-Apr-25 19:34N 31°50' E 031°53'1514.6
2016-Apr-25 18:33N 31°39' E 032°05'1414.6
2016-Apr-25 17:34N 31°30' E 032°18'1211.5
2016-Apr-25 16:34N 31°19' E 032°22'11 8.8
2016-Apr-25 15:21N 31°09' E 032°19'7 9.5
2016-Apr-25 14:34N 31°01' E 032°19'  
Track history (hours):
 
Tides and Currents Weather Stations Pressure Air Temp Water Temp Dewpoint Dewpoint Depression Visibility Wind Speed Wind Dir Waves Ship Positions

Isola Bianca

Last reported at 2016-May-03 09:04 UTC. Time now 2016-May-03 10:35 UTC.
Position N 43°39' E 035°17'.

Length 183 m; draft 8 m.

Type: Ship. MMSI: 247245200.

Date/timePositionNaut miles runAvg speedWind from/ knotsBaromVisibWave heightAir tempDewpointWater temp
2016-May-03 09:04N 43°39' E 035°17'1112.8
2016-May-03 08:12N 43°44' E 035°31'1013.0
2016-May-03 07:28N 43°48' E 035°43'1312.9
2016-May-03 06:29N 43°54' E 035°58'1313.0
2016-May-03 05:29N 44°00' E 036°14'1413.1
2016-May-03 04:25N 44°06' E 036°32'4113.1
2016-May-03 01:19N 44°25' E 037°22'1012.9
2016-May-03 00:33N 44°30' E 037°34'1312.9
2016-May-02 23:33N 44°35' E 037°50'3 3.1
2016-May-02 22:32N 44°36' E 037°55'0 0.0
2016-May-02 21:32N 44°36' E 037°55'0 0.0
2016-May-02 20:32N 44°36' E 037°55'0 0.0
2016-May-02 19:32N 44°36' E 037°55'0 0.0
2016-May-02 18:32N 44°36' E 037°55'0 0.0
2016-May-02 17:32N 44°36' E 037°55'0 0.0
2016-May-02 16:32N 44°36' E 037°55'0 0.0
2016-May-02 15:32N 44°36' E 037°55'0 0.0
2016-May-02 14:32N 44°36' E 037°55'0 0.0
2016-May-02 13:32N 44°36' E 037°55'0 0.0
2016-May-02 12:32N 44°36' E 037°55'0 0.1
2016-May-02 11:32N 44°36' E 037°55'0 0.0
2016-May-02 10:32N 44°36' E 037°55'0 0.0
2016-May-02 09:32N 44°36' E 037°55'0 0.0
2016-May-02 08:29N 44°36' E 037°55'0 0.0
2016-May-02 07:32N 44°36' E 037°55'0 0.0
2016-May-02 06:32N 44°36' E 037°55'0 0.0
2016-May-02 05:32N 44°36' E 037°55'0 0.0
2016-May-02 04:32N 44°36' E 037°55'0 0.1
2016-May-02 03:32N 44°36' E 037°55'5 4.9
2016-May-02 02:33N 44°40' E 037°50'5 4.4
2016-May-02 01:31N 44°44' E 037°47'0 0.0
2016-May-02 00:31N 44°44' E 037°47'0 0.0
2016-May-01 23:31N 44°44' E 037°47'0 0.0
2016-May-01 22:31N 44°44' E 037°47'0 0.0
2016-May-01 21:31N 44°44' E 037°47'0 0.0
2016-May-01 20:31N 44°44' E 037°47'0 0.0
2016-May-01 19:22N 44°44' E 037°47'0 0.0
2016-May-01 18:31N 44°44' E 037°47'0 0.0
2016-May-01 17:31N 44°44' E 037°47'0 0.0
2016-May-01 16:31N 44°44' E 037°47'0 0.0
2016-May-01 15:31N 44°44' E 037°47'0 0.0
2016-May-01 14:31N 44°44' E 037°47'0 0.0
2016-May-01 13:13N 44°44' E 037°47'0 0.0
2016-May-01 12:31N 44°44' E 037°47'0 0.0
2016-May-01 11:31N 44°44' E 037°47'0 0.0
2016-May-01 10:31N 44°44' E 037°47'0 0.0
2016-May-01 09:22N 44°44' E 037°47'0 0.0
2016-May-01 08:31N 44°44' E 037°47'0 0.0
2016-May-01 07:31N 44°44' E 037°47'0 0.0
2016-May-01 06:31N 44°44' E 037°47'0 0.0
2016-May-01 05:31N 44°44' E 037°47'0 0.0
2016-May-01 04:31N 44°44' E 037°47'0 0.0
2016-May-01 03:31N 44°44' E 037°47'0 0.0
2016-May-01 02:31N 44°44' E 037°47'0 0.0
2016-May-01 01:31N 44°44' E 037°47'0 0.0
2016-May-01 00:31N 44°44' E 037°47'0 0.0
2016-Apr-30 23:31N 44°44' E 037°47'0 0.0
2016-Apr-30 22:31N 44°44' E 037°47'1 0.9
2016-Apr-30 21:33N 44°43' E 037°48'7 7.2
2016-Apr-30 20:33N 44°36' E 037°51'17 8.4
2016-Apr-30 18:32N 44°19' E 037°48'1 0.7
2016-Apr-30 17:17N 44°20' E 037°47'1 0.8
2016-Apr-30 16:33N 44°21' E 037°46'1 1.0
2016-Apr-30 15:24N 44°21' E 037°45'1 1.0
2016-Apr-30 14:33N 44°22' E 037°44'1 1.2
2016-Apr-30 13:33N 44°23' E 037°43'1 1.3
2016-Apr-30 12:27N 44°24' E 037°42'1 1.2
2016-Apr-30 11:33N 44°25' E 037°42'1 1.0
2016-Apr-30 10:33N 44°26' E 037°41'1 0.9
2016-Apr-30 09:33N 44°27' E 037°40'1 0.9
2016-Apr-30 08:33N 44°27' E 037°39'1 0.8
2016-Apr-30 07:33N 44°27' E 037°38'1 0.8
2016-Apr-30 06:33N 44°27' E 037°37'3 2.9
2016-Apr-30 05:33N 44°25' E 037°33'42914.3
2016-Apr-28 23:33N 41°01' E 028°60'7 6.5
2016-Apr-28 22:30N 40°57' E 028°53'0 0.0
2016-Apr-28 16:06N 40°57' E 028°53'0 0.0
2016-Apr-28 10:24N 40°57' E 028°53'2 2.0
2016-Apr-28 09:33N 40°55' E 028°53'4 3.5
2016-Apr-28 08:33N 40°52' E 028°55'4 3.9
2016-Apr-28 07:30N 40°51' E 028°50'242 8.5
2016-Apr-27 03:10N 37°32' E 025°52'36414.2
2016-Apr-26 01:31N 32°55' E 030°40'1414.9
2016-Apr-26 00:33N 32°44' E 030°52'1615.2
2016-Apr-25 23:31N 32°33' E 031°05'1415.0
2016-Apr-25 22:34N 32°22' E 031°16'1515.0
2016-Apr-25 21:33N 32°11' E 031°27'1515.1
2016-Apr-25 20:34N 31°60' E 031°39'1514.9
2016-Apr-25 19:34N 31°50' E 031°53'1514.6
2016-Apr-25 18:33N 31°39' E 032°05'1414.6
2016-Apr-25 17:34N 31°30' E 032°18'1211.5
2016-Apr-25 16:34N 31°19' E 032°22'11 8.8
2016-Apr-25 15:21N 31°09' E 032°19'7 9.5
2016-Apr-25 14:34N 31°01' E 032°19'  

Dump ship's entire track history